UAKD

Zhezkazgan

Zhezkazgan, Kazakhstan
TAF UAKD 260200Z 2603/2612 23005MPS 9999 BKN100 TEMPO 2603/2609 23008MPS TEMPO 2609/2612 23008MPS SCT030
Issued Valid From Valid To
Apr-26 @ 02:00 UTC
(2 hours ago)
Apr-26 @ 03:00 UTC
(34 minutes ago)
Apr-26 @ 12:00 UTC
(in 8 hours)
Apr-26 @ 03:00 to Apr-26 @ 12:00
TAF UAKD 260200Z 2603/2612 23005MPS 9999 BKN100
Wind Visibility Clouds
230° at 10 knots 10,000+ meters
  • Broken at 10,000' AGL
Temporary Apr-26 @ 03:00 to Apr-26 @ 09:00
TEMPO 2603/2609 23008MPS
Wind
230° at 16 knots
Temporary Apr-26 @ 09:00 to Apr-26 @ 12:00
TEMPO 2609/2612 23008MPS SCT030
Wind Clouds
230° at 16 knots
  • Scattered at 3,000' AGL
TAF UAKD 260200Z 2603/2612 23005MPS 9999 BKN100 TEMPO 2603/2609 23008MPS TEMPO 2609/2612 23008MPS SCT030
Issued Apr-26 @ 02:00 UTC
(2 hours ago)
Valid From Apr-26 @ 03:00 UTC
(34 minutes ago)
Valid To Apr-26 @ 12:00 UTC
(in 8 hours)
Apr-26 @ 03:00 - Apr-26 @ 12:00
Wind Visibility
230° at 10 knots 10,000+ meters
Clouds
  • Broken at 10,000' AGL
Temporary Apr-26 @ 03:00 - Apr-26 @ 09:00
Wind
230° at 16 knots
Temporary Apr-26 @ 09:00 - Apr-26 @ 12:00
Wind
230° at 16 knots
Clouds
  • Scattered at 3,000' AGL